createdAt,value
2022-12-23T00:13:02.876Z,100.00
2022-12-23T00:43:07.194Z,100.00
2022-12-23T01:13:11.241Z,100.00
2022-12-23T01:43:20.334Z,100.00
2022-12-23T02:13:31.098Z,100.00
2022-12-23T02:43:40.960Z,100.00
2022-12-23T03:14:10.287Z,100.00
2022-12-23T03:44:18.376Z,100.00
2022-12-23T04:14:23.636Z,100.00
2022-12-23T04:44:27.681Z,100.00
2022-12-23T05:14:31.712Z,100.00
2022-12-23T05:44:35.747Z,100.00
2022-12-23T06:14:40.061Z,100.00
2022-12-23T06:44:44.096Z,100.00
2022-12-23T07:14:48.112Z,100.00
2022-12-23T07:44:52.141Z,100.00
2022-12-23T08:14:56.318Z,100.00
2022-12-23T08:45:00.951Z,98.54
2022-12-23T09:15:05.536Z,98.27
2022-12-23T09:45:18.054Z,97.41
2022-12-23T10:15:24.094Z,97.64
2022-12-23T10:45:42.485Z,99.33
2022-12-23T11:15:46.574Z,100.00
2022-12-23T11:46:17.956Z,100.00
2022-12-23T12:16:34.606Z,100.00
2022-12-23T12:46:43.714Z,100.00
2022-12-23T13:16:53.364Z,100.00
2022-12-23T13:47:04.109Z,100.00
2022-12-23T14:17:12.740Z,100.00
2022-12-23T14:47:35.054Z,100.00
2022-12-23T15:17:40.584Z,100.00
2022-12-23T15:47:45.882Z,100.00
2022-12-23T16:17:50.294Z,100.00
2022-12-23T16:47:57.131Z,100.00
2022-12-23T17:18:01.205Z,100.00
2022-12-23T17:48:05.758Z,99.28
2022-12-23T18:18:19.011Z,93.18
2022-12-23T18:48:26.120Z,88.62
2022-12-23T19:18:30.363Z,89.44
2022-12-23T19:48:34.794Z,87.89
2022-12-23T20:18:39.371Z,88.17
2022-12-23T20:48:43.438Z,85.69
2022-12-23T21:18:50.474Z,81.26
2022-12-23T21:48:56.063Z,81.75
2022-12-23T22:19:01.187Z,79.51
2022-12-23T22:49:05.219Z,74.46
2022-12-23T23:19:10.811Z,77.11
2022-12-23T23:49:15.291Z,77.41
